createdAt,value
2023-03-27T00:03:16.128Z,11.52
2023-03-27T00:08:22.769Z,10.30
2023-03-27T00:13:31.283Z,8.20
2023-03-27T00:18:37.951Z,8.93
2023-03-27T00:23:44.577Z,10.40
2023-03-27T00:28:53.060Z,9.60
2023-03-27T00:33:59.378Z,8.63
2023-03-27T00:39:06.941Z,10.75
2023-03-27T00:44:28.561Z,11.00
2023-03-27T00:49:38.653Z,10.38
2023-03-27T00:54:47.156Z,9.73
2023-03-27T00:59:59.584Z,10.40
2023-03-27T01:05:08.166Z,11.73
2023-03-27T01:10:15.395Z,9.27
2023-03-27T01:15:37.464Z,11.32
2023-03-27T01:21:24.220Z,7.30
2023-03-27T01:27:03.541Z,10.95
2023-03-27T01:33:26.117Z,11.73
2023-03-27T01:39:25.030Z,9.05
2023-03-27T01:44:46.292Z,8.88
2023-03-27T01:49:58.673Z,14.40
2023-03-27T01:55:12.610Z,19.15
2023-03-27T02:00:24.704Z,14.32
2023-03-27T02:05:48.624Z,13.00
2023-03-27T02:11:00.730Z,18.17
2023-03-27T02:16:12.428Z,14.02
2023-03-27T02:21:19.088Z,14.93
2023-03-27T02:26:27.601Z,15.07
2023-03-27T02:31:54.593Z,14.93
2023-03-27T02:37:10.090Z,15.82
2023-03-27T02:43:02.959Z,13.52
2023-03-27T02:48:17.772Z,15.13
2023-03-27T02:53:28.740Z,16.20
2023-03-27T02:58:45.947Z,12.30
2023-03-27T03:04:12.321Z,12.38
2023-03-27T03:09:32.613Z,13.93
2023-03-27T03:14:44.579Z,17.20
2023-03-27T03:19:51.278Z,13.65
2023-03-27T03:24:57.805Z,16.27
2023-03-27T03:30:11.220Z,13.30
2023-03-27T03:35:30.155Z,18.20
2023-03-27T03:40:38.190Z,14.88
2023-03-27T03:45:46.033Z,13.23
2023-03-27T03:50:52.710Z,13.45
2023-03-27T03:55:59.205Z,13.10
2023-03-27T04:01:09.471Z,16.17
2023-03-27T04:06:25.857Z,16.17
2023-03-27T04:11:37.844Z,17.90
2023-03-27T04:16:56.666Z,12.73
2023-03-27T04:22:07.330Z,12.10
2023-03-27T04:27:15.896Z,16.95
2023-03-27T04:32:39.921Z,12.38
2023-03-27T04:38:09.014Z,12.80
2023-03-27T04:43:22.174Z,15.82
2023-03-27T04:48:31.122Z,17.05
2023-03-27T04:53:39.137Z,19.80
2023-03-27T04:58:48.687Z,15.88
2023-03-27T05:03:58.260Z,21.13
2023-03-27T05:09:21.464Z,12.85
2023-03-27T05:14:28.356Z,16.10
2023-03-27T05:19:42.666Z,13.05
2023-03-27T05:24:49.151Z,10.88
2023-03-27T05:29:56.127Z,8.15
2023-03-27T05:35:04.644Z,8.05
2023-03-27T05:40:21.374Z,5.57
2023-03-27T05:45:29.670Z,12.13
2023-03-27T05:50:37.959Z,9.15
2023-03-27T05:56:03.111Z,9.95
2023-03-27T06:01:19.260Z,10.30
2023-03-27T06:06:28.096Z,7.65
2023-03-27T06:11:38.416Z,7.40
2023-03-27T06:16:45.064Z,9.25
2023-03-27T06:22:20.901Z,7.53
2023-03-27T06:27:28.697Z,7.13
2023-03-27T06:32:36.757Z,7.45
2023-03-27T06:37:52.371Z,14.18
2023-03-27T06:43:04.243Z,6.07
2023-03-27T06:48:21.528Z,6.22
2023-03-27T06:53:36.547Z,6.53
2023-03-27T06:58:49.575Z,8.15
2023-03-27T07:03:57.151Z,5.35
2023-03-27T07:09:25.604Z,6.45
2023-03-27T07:14:42.396Z,5.40
2023-03-27T07:19:48.729Z,5.55
2023-03-27T07:24:58.266Z,4.63
2023-03-27T07:30:16.235Z,5.10
2023-03-27T07:35:23.173Z,4.30
2023-03-27T07:40:50.791Z,4.22
2023-03-27T07:46:17.768Z,5.22
2023-03-27T07:51:24.568Z,5.80
2023-03-27T07:56:34.459Z,6.55
2023-03-27T08:02:04.454Z,3.80
2023-03-27T08:07:15.405Z,8.43
2023-03-27T08:12:25.000Z,5.53
2023-03-27T08:17:38.109Z,3.90
2023-03-27T08:22:45.172Z,7.70
2023-03-27T08:28:19.337Z,6.35
2023-03-27T08:33:27.984Z,5.30
2023-03-27T08:38:35.153Z,4.32
2023-03-27T08:43:56.566Z,4.00
2023-03-27T08:49:11.574Z,5.88
2023-03-27T08:54:24.230Z,6.38
2023-03-27T08:59:33.678Z,5.97
2023-03-27T09:04:48.952Z,4.90
2023-03-27T09:10:04.338Z,5.72
2023-03-27T09:15:26.536Z,4.97
2023-03-27T09:20:36.729Z,3.20
2023-03-27T09:25:50.272Z,4.80
2023-03-27T09:31:26.817Z,5.15
2023-03-27T09:36:36.065Z,5.35
2023-03-27T09:41:48.378Z,2.15
2023-03-27T09:47:04.736Z,5.50
2023-03-27T09:52:39.495Z,2.72
2023-03-27T09:58:13.150Z,4.30
2023-03-27T10:03:24.972Z,4.82
2023-03-27T10:08:42.473Z,2.30
2023-03-27T10:13:58.522Z,3.63
2023-03-27T10:19:08.376Z,2.65
2023-03-27T10:24:28.087Z,3.50
2023-03-27T10:29:57.979Z,3.00
2023-03-27T10:35:07.944Z,2.90
2023-03-27T10:40:37.364Z,4.30
2023-03-27T10:46:07.931Z,4.65
2023-03-27T10:51:45.479Z,3.83
2023-03-27T10:57:03.995Z,4.88
2023-03-27T11:02:19.102Z,3.45
2023-03-27T11:07:38.261Z,2.22
2023-03-27T11:12:55.153Z,3.35
2023-03-27T11:18:08.774Z,7.15
2023-03-27T11:23:32.452Z,2.55
2023-03-27T11:29:10.711Z,1.20
2023-03-27T11:34:32.781Z,4.78
2023-03-27T11:40:07.419Z,1.95
2023-03-27T11:45:17.049Z,2.45
2023-03-27T11:55:45.535Z,2.80
2023-03-27T12:01:02.284Z,4.50
2023-03-27T12:06:21.142Z,2.13
2023-03-27T12:11:31.812Z,2.30
2023-03-27T12:17:16.455Z,1.50
2023-03-27T12:22:48.911Z,2.88
2023-03-27T12:28:37.752Z,2.10
2023-03-27T12:34:05.416Z,1.65
2023-03-27T12:39:21.570Z,5.07
2023-03-27T12:44:32.827Z,5.90
2023-03-27T12:49:58.844Z,1.73
2023-03-27T12:55:34.579Z,2.90
2023-03-27T13:00:54.136Z,1.88
2023-03-27T13:06:23.540Z,3.67
2023-03-27T13:12:07.919Z,3.55
2023-03-27T13:17:49.745Z,2.95
2023-03-27T13:23:12.202Z,2.53
2023-03-27T13:28:38.384Z,3.30
2023-03-27T13:34:15.982Z,2.75
2023-03-27T13:39:26.629Z,3.67
2023-03-27T13:45:05.066Z,3.13
2023-03-27T13:50:42.678Z,6.15
2023-03-27T13:56:29.780Z,3.33
2023-03-27T14:02:01.404Z,3.63
2023-03-27T14:08:21.553Z,2.60
2023-03-27T14:14:24.059Z,3.45
2023-03-27T14:20:15.213Z,5.32
2023-03-27T14:25:31.889Z,1.27
2023-03-27T14:30:54.937Z,4.65
2023-03-27T14:36:28.902Z,3.13
2023-03-27T14:41:48.674Z,4.35
2023-03-27T14:47:01.381Z,6.50
2023-03-27T14:52:09.565Z,4.93
2023-03-27T14:57:36.363Z,5.05
2023-03-27T15:02:48.246Z,4.43
2023-03-27T15:07:56.013Z,5.25
2023-03-27T15:13:34.196Z,4.00
2023-03-27T15:18:57.037Z,3.03
2023-03-27T15:24:10.940Z,2.75
2023-03-27T15:29:32.640Z,2.35
2023-03-27T15:34:46.728Z,3.17
2023-03-27T15:40:34.367Z,6.13
2023-03-27T15:46:02.214Z,6.22
2023-03-27T15:51:12.751Z,2.73
2023-03-27T15:56:25.152Z,1.98
2023-03-27T16:01:39.811Z,2.40
2023-03-27T16:06:52.373Z,3.40
2023-03-27T16:12:01.301Z,3.05
2023-03-27T16:17:35.383Z,5.23
2023-03-27T16:22:43.408Z,3.80
2023-03-27T16:27:55.058Z,6.30
2023-03-27T16:33:04.210Z,6.90
2023-03-27T16:38:11.467Z,5.28
2023-03-27T16:43:18.358Z,3.03
2023-03-27T16:48:28.009Z,4.05
2023-03-27T16:53:38.446Z,4.82
2023-03-27T16:58:54.660Z,3.92
2023-03-27T17:04:05.016Z,4.35
2023-03-27T17:09:13.233Z,3.88
2023-03-27T17:14:25.055Z,5.13
2023-03-27T17:19:35.568Z,4.75
2023-03-27T17:24:55.272Z,5.95
2023-03-27T17:30:09.763Z,5.57
2023-03-27T17:35:18.911Z,8.25
2023-03-27T17:40:26.552Z,4.80
2023-03-27T17:45:44.004Z,7.05
2023-03-27T17:51:05.587Z,6.53
2023-03-27T17:56:16.235Z,5.03
2023-03-27T18:01:26.564Z,5.20
2023-03-27T18:06:37.624Z,5.20
2023-03-27T18:11:46.331Z,5.78
2023-03-27T18:16:56.977Z,4.53
2023-03-27T18:22:08.926Z,10.13
2023-03-27T18:27:18.769Z,7.35
2023-03-27T18:32:28.131Z,10.32
2023-03-27T18:37:39.390Z,6.22
2023-03-27T18:42:49.816Z,5.85
2023-03-27T18:48:03.477Z,4.18
2023-03-27T18:53:16.767Z,4.15
2023-03-27T18:58:27.794Z,4.68
2023-03-27T19:03:37.294Z,2.97
2023-03-27T19:08:48.817Z,3.60
2023-03-27T19:13:58.471Z,6.22
2023-03-27T19:19:31.768Z,4.95
2023-03-27T19:25:01.263Z,5.78
2023-03-27T19:30:15.804Z,4.47
2023-03-27T19:35:25.849Z,6.38
2023-03-27T19:40:36.091Z,6.15
2023-03-27T19:46:08.053Z,4.25
2023-03-27T19:51:24.397Z,5.85
2023-03-27T19:56:38.473Z,7.35
2023-03-27T20:01:49.717Z,5.20
2023-03-27T20:06:59.889Z,8.27
2023-03-27T20:12:13.361Z,5.75
2023-03-27T20:17:28.129Z,6.28
2023-03-27T20:22:50.096Z,5.53
2023-03-27T20:28:07.923Z,4.07
2023-03-27T20:33:16.134Z,6.35
2023-03-27T20:38:24.565Z,7.43
2023-03-27T20:43:35.601Z,8.55
2023-03-27T20:48:53.962Z,6.18
2023-03-27T20:54:02.161Z,5.72
2023-03-27T20:59:10.461Z,5.50
2023-03-27T21:04:17.962Z,7.28
2023-03-27T21:09:25.749Z,5.57
2023-03-27T21:14:34.956Z,6.72
2023-03-27T21:19:41.678Z,6.35
2023-03-27T21:24:48.433Z,4.85
2023-03-27T21:29:56.572Z,3.53
2023-03-27T21:35:03.325Z,7.37
2023-03-27T21:40:11.683Z,5.97
2023-03-27T21:45:20.108Z,10.10
2023-03-27T21:50:26.647Z,6.43
2023-03-27T21:55:34.676Z,6.28
2023-03-27T22:00:42.985Z,6.35
2023-03-27T22:06:01.010Z,6.55
2023-03-27T22:11:17.781Z,7.43
2023-03-27T22:16:27.877Z,4.60
2023-03-27T22:21:35.020Z,5.97
2023-03-27T22:26:42.483Z,7.72
2023-03-27T22:31:50.575Z,7.05
2023-03-27T22:36:57.202Z,4.90
2023-03-27T22:42:04.020Z,14.10
2023-03-27T22:47:12.332Z,20.80
2023-03-27T22:52:19.110Z,13.03
2023-03-27T22:57:25.703Z,11.85
2023-03-27T23:02:33.852Z,21.60
2023-03-27T23:07:40.494Z,28.00
2023-03-27T23:12:46.878Z,23.27
2023-03-27T23:17:56.640Z,18.42
2023-03-27T23:23:03.189Z,20.92
2023-03-27T23:28:09.687Z,18.77
2023-03-27T23:33:17.739Z,14.32
2023-03-27T23:38:24.303Z,16.27
2023-03-27T23:43:32.266Z,22.85
2023-03-27T23:48:42.155Z,21.17
2023-03-27T23:53:48.493Z,20.90
2023-03-27T23:58:55.183Z,17.35
